createdAt,value
2019-04-28T00:01:32.193Z,29.00
2019-04-28T00:04:36.467Z,29.20
2019-04-28T00:07:41.155Z,29.70
2019-04-28T00:10:45.501Z,27.97
2019-04-28T00:13:51.849Z,31.33
2019-04-28T00:16:55.864Z,29.53
2019-04-28T00:20:01.738Z,29.70
2019-04-28T00:23:16.678Z,30.40
2019-04-28T00:26:44.514Z,29.63
2019-04-28T00:29:48.792Z,29.27
2019-04-28T00:32:53.103Z,32.73
2019-04-28T00:35:57.779Z,29.97
2019-04-28T00:39:02.206Z,31.13
2019-04-28T00:42:06.553Z,31.10
2019-04-28T00:45:11.582Z,30.67
2019-04-28T00:48:15.961Z,29.73
2019-04-28T00:51:21.329Z,31.73
2019-04-28T00:54:25.799Z,31.23
2019-04-28T00:57:30.965Z,30.63
2019-04-28T01:00:37.474Z,31.90
2019-04-28T01:03:48.726Z,31.77
2019-04-28T01:06:53.018Z,32.50
2019-04-28T01:09:57.453Z,31.63
2019-04-28T01:13:02.208Z,31.43
2019-04-28T01:16:16.308Z,32.13
2019-04-28T01:19:24.881Z,33.60
2019-04-28T01:22:30.051Z,33.93
2019-04-28T01:25:34.524Z,34.43
2019-04-28T01:28:39.832Z,34.97
2019-04-28T01:31:51.806Z,36.07
2019-04-28T01:34:56.427Z,34.80
2019-04-28T01:38:00.690Z,36.13
2019-04-28T01:41:05.199Z,36.67
2019-04-28T01:44:10.246Z,38.00
2019-04-28T01:47:14.642Z,37.90
2019-04-28T01:50:20.456Z,37.70
2019-04-28T01:53:25.091Z,38.60
2019-04-28T01:56:30.420Z,36.80
2019-04-28T01:59:34.848Z,37.27
2019-04-28T02:02:40.725Z,37.83
2019-04-28T02:05:45.126Z,38.13
2019-04-28T02:08:51.149Z,37.40
2019-04-28T02:11:55.408Z,38.77
2019-04-28T02:15:00.943Z,40.17
2019-04-28T02:18:05.636Z,41.27
2019-04-28T02:21:34.885Z,41.27
2019-04-28T02:24:40.491Z,39.63
2019-04-28T02:27:44.932Z,43.20
2019-04-28T02:30:53.386Z,40.87
2019-04-28T02:33:55.146Z,42.67
2019-04-28T02:37:01.414Z,43.67
2019-04-28T02:40:06.851Z,43.10
2019-04-28T02:43:11.611Z,43.83
2019-04-28T02:46:16.032Z,43.80
2019-04-28T02:49:30.727Z,42.60
2019-04-28T02:53:02.067Z,44.07
2019-04-28T02:56:06.593Z,42.27
2019-04-28T02:59:11.066Z,42.60
2019-04-28T03:02:15.582Z,46.13
2019-04-28T03:05:21.599Z,45.77
2019-04-28T03:08:26.200Z,46.37
2019-04-28T03:11:31.440Z,45.10
2019-04-28T03:14:35.960Z,47.83
2019-04-28T03:17:40.902Z,42.63
2019-04-28T03:20:45.415Z,43.03
2019-04-28T03:23:51.697Z,44.70
2019-04-28T03:27:03.583Z,45.80
2019-04-28T03:30:25.993Z,44.37
2019-04-28T03:33:34.510Z,45.63
2019-04-28T03:36:36.809Z,44.50
2019-04-28T03:39:41.122Z,44.20
2019-04-28T03:42:45.467Z,44.63
2019-04-28T03:45:54.442Z,45.67
2019-04-28T03:49:00.756Z,45.20
2019-04-28T03:52:05.989Z,44.43
2019-04-28T03:55:11.752Z,43.93
2019-04-28T03:58:16.306Z,44.07
2019-04-28T04:01:20.906Z,43.00
2019-04-28T04:04:25.333Z,45.77
2019-04-28T04:07:31.149Z,44.50
2019-04-28T04:10:43.147Z,44.87
2019-04-28T04:14:02.803Z,43.93
2019-04-28T04:17:16.739Z,44.27
2019-04-28T04:20:24.531Z,44.17
2019-04-28T04:23:30.940Z,45.07
2019-04-28T04:26:34.653Z,42.87
2019-04-28T04:29:41.184Z,42.23
2019-04-28T04:32:44.947Z,44.30
2019-04-28T04:35:51.596Z,43.40
2019-04-28T04:38:55.275Z,47.13
2019-04-28T04:42:00.634Z,43.80
2019-04-28T04:45:05.131Z,42.17
2019-04-28T04:48:11.620Z,43.70
2019-04-28T04:51:15.702Z,44.23
2019-04-28T04:54:20.511Z,43.67
2019-04-28T04:57:24.878Z,43.70
2019-04-28T05:00:36.998Z,43.20
2019-04-28T05:03:42.942Z,42.27
2019-04-28T05:06:47.315Z,43.40
2019-04-28T05:09:51.581Z,42.10
2019-04-28T05:12:55.946Z,41.63
2019-04-28T05:16:00.295Z,41.87
2019-04-28T05:19:05.515Z,42.27
2019-04-28T05:22:10.538Z,40.33
2019-04-28T05:25:20.510Z,41.80
2019-04-28T05:28:24.724Z,41.47
2019-04-28T05:31:29.731Z,39.83
2019-04-28T05:34:33.983Z,40.77
2019-04-28T05:37:40.300Z,39.90
2019-04-28T05:40:44.190Z,40.63
2019-04-28T05:43:50.413Z,39.60
2019-04-28T05:46:54.603Z,39.07
2019-04-28T05:50:05.377Z,38.77
2019-04-28T05:53:21.833Z,37.03
2019-04-28T05:56:40.827Z,38.73
2019-04-28T06:00:03.306Z,37.80
2019-04-28T06:03:09.597Z,37.97
2019-04-28T06:06:14.032Z,38.70
2019-04-28T06:09:35.383Z,37.10
2019-04-28T06:12:40.598Z,35.93
2019-04-28T06:15:45.151Z,33.63
2019-04-28T06:18:50.082Z,36.03
2019-04-28T06:21:55.238Z,34.83
2019-04-28T06:24:59.560Z,34.37
2019-04-28T06:28:03.807Z,35.23
2019-04-28T06:31:08.123Z,33.67
2019-04-28T06:34:12.405Z,33.13
2019-04-28T06:37:16.730Z,34.40
2019-04-28T06:40:21.053Z,33.10
2019-04-28T06:43:25.256Z,35.00
2019-04-28T06:46:29.714Z,34.83
2019-04-28T06:49:34.052Z,33.80
2019-04-28T06:52:38.518Z,33.23
2019-04-28T06:55:42.803Z,33.07
2019-04-28T06:58:58.478Z,34.63
2019-04-28T07:01:54.050Z,33.63
2019-04-28T07:05:02.249Z,32.43
2019-04-28T07:08:04.639Z,34.07
2019-04-28T07:11:09.038Z,32.40
2019-04-28T07:14:13.389Z,33.20
2019-04-28T07:17:17.767Z,33.47
2019-04-28T07:20:43.862Z,32.47
2019-04-28T07:23:48.760Z,32.30
2019-04-28T07:26:57.070Z,32.63
2019-04-28T07:30:01.453Z,33.47
2019-04-28T07:33:05.728Z,32.90
2019-04-28T07:36:10.034Z,33.70
2019-04-28T07:39:14.325Z,33.23
2019-04-28T07:42:18.596Z,32.90
2019-04-28T07:45:22.950Z,33.33
2019-04-28T07:48:27.359Z,32.80
2019-04-28T07:51:43.463Z,34.43
2019-04-28T07:54:47.862Z,31.80
2019-04-28T07:57:52.348Z,31.47
2019-04-28T08:00:56.719Z,33.43
2019-04-28T08:04:01.048Z,32.03
2019-04-28T08:07:05.368Z,31.83
2019-04-28T08:10:10.015Z,32.20
2019-04-28T08:13:14.354Z,30.80
2019-04-28T08:16:18.627Z,31.57
2019-04-28T08:19:23.023Z,29.97
2019-04-28T08:22:27.630Z,29.97
2019-04-28T08:25:32.044Z,29.07
2019-04-28T08:28:36.407Z,26.77
2019-04-28T08:32:02.644Z,26.17
2019-04-28T08:35:07.154Z,24.57
2019-04-28T08:38:11.444Z,25.90
2019-04-28T08:41:15.817Z,25.03
2019-04-28T08:44:20.130Z,24.43
2019-04-28T08:47:24.470Z,23.30
2019-04-28T08:50:28.832Z,24.17
2019-04-28T08:53:33.113Z,23.13
2019-04-28T08:56:37.492Z,23.67
2019-04-28T08:59:41.915Z,23.60
2019-04-28T09:02:46.287Z,24.40
2019-04-28T09:05:50.699Z,21.03
2019-04-28T09:08:54.997Z,22.83
2019-04-28T09:11:59.363Z,23.00
2019-04-28T09:15:04.218Z,22.10
2019-04-28T09:18:08.570Z,23.00
2019-04-28T09:21:12.935Z,21.97
2019-04-28T09:24:20.219Z,22.97
2019-04-28T09:27:24.601Z,23.40
2019-04-28T09:30:29.027Z,24.10
2019-04-28T09:33:33.459Z,23.90
2019-04-28T09:36:37.804Z,24.10
2019-04-28T09:39:49.695Z,23.53
2019-04-28T09:43:18.839Z,23.30
2019-04-28T09:46:26.376Z,22.93
2019-04-28T09:49:33.884Z,22.80
2019-04-28T09:52:38.244Z,23.40
2019-04-28T09:55:42.633Z,22.70
2019-04-28T09:58:46.969Z,21.70
2019-04-28T10:01:51.354Z,22.60
2019-04-28T10:04:55.675Z,21.50
2019-04-28T10:07:59.942Z,21.17
2019-04-28T10:11:04.391Z,20.30
2019-04-28T10:14:08.744Z,19.50
2019-04-28T10:17:13.743Z,19.40
2019-04-28T10:20:19.076Z,17.43
2019-04-28T10:23:23.406Z,17.93
2019-04-28T10:26:29.653Z,18.10
2019-04-28T10:29:34.060Z,17.27
2019-04-28T10:32:38.268Z,17.77
2019-04-28T10:35:42.707Z,18.30
2019-04-28T10:38:48.690Z,17.17
2019-04-28T10:41:53.508Z,18.60
2019-04-28T10:44:58.151Z,17.20
2019-04-28T10:48:02.974Z,17.93
2019-04-28T10:51:07.366Z,17.27
2019-04-28T10:54:11.820Z,16.33
2019-04-28T10:57:16.170Z,16.20
2019-04-28T11:00:24.329Z,14.97
2019-04-28T11:03:28.750Z,14.93
2019-04-28T11:06:33.395Z,15.07
2019-04-28T11:09:42.885Z,15.07
2019-04-28T11:12:47.650Z,15.53
2019-04-28T11:15:51.988Z,14.03
2019-04-28T11:18:56.357Z,12.93
2019-04-28T11:22:00.689Z,12.77
2019-04-28T11:25:05.593Z,12.50
2019-04-28T11:28:10.095Z,12.47
2019-04-28T11:31:14.557Z,11.50
2019-04-28T11:34:28.219Z,11.80
2019-04-28T11:37:32.615Z,10.90
2019-04-28T11:40:36.994Z,11.07
2019-04-28T11:43:41.376Z,11.53
2019-04-28T11:46:45.644Z,11.73
2019-04-28T11:49:49.975Z,12.37
2019-04-28T11:52:54.351Z,11.57
2019-04-28T11:55:58.781Z,10.47
2019-04-28T11:59:03.215Z,11.80
2019-04-28T12:02:08.197Z,10.57
2019-04-28T12:05:12.522Z,11.07
2019-04-28T12:08:16.905Z,10.63
2019-04-28T12:11:34.459Z,10.93
2019-04-28T12:14:44.516Z,10.17
2019-04-28T12:18:06.587Z,10.13
2019-04-28T12:21:10.982Z,10.30
2019-04-28T12:24:15.635Z,9.43
2019-04-28T12:27:19.941Z,10.07
2019-04-28T12:30:24.291Z,9.57
2019-04-28T12:33:28.682Z,10.37
2019-04-28T12:36:34.181Z,9.77
2019-04-28T12:39:38.570Z,9.50
2019-04-28T12:42:42.870Z,10.20
2019-04-28T12:45:47.194Z,9.93
2019-04-28T12:48:54.772Z,9.60
2019-04-28T12:51:59.086Z,8.90
2019-04-28T12:55:04.353Z,9.93
2019-04-28T12:58:08.720Z,10.43
2019-04-28T13:01:33.162Z,8.60
2019-04-28T13:04:41.171Z,9.10
2019-04-28T13:07:45.514Z,8.83
2019-04-28T13:10:49.883Z,9.03
2019-04-28T13:13:54.214Z,9.70
2019-04-28T13:16:58.533Z,9.30
2019-04-28T13:20:02.924Z,9.27
2019-04-28T13:23:08.255Z,9.33
2019-04-28T13:26:12.598Z,8.83
2019-04-28T13:29:16.991Z,7.60
2019-04-28T13:32:21.344Z,7.07
2019-04-28T13:35:25.849Z,7.20
2019-04-28T13:38:30.218Z,7.60
2019-04-28T13:41:37.492Z,6.97
2019-04-28T13:44:55.347Z,7.33
2019-04-28T13:47:59.946Z,7.10
2019-04-28T13:51:04.346Z,7.40
2019-04-28T13:54:10.696Z,6.93
2019-04-28T13:57:15.019Z,7.17
2019-04-28T14:00:21.562Z,7.20
2019-04-28T14:03:47.594Z,7.60
2019-04-28T14:06:55.032Z,7.07
2019-04-28T14:09:59.383Z,6.60
2019-04-28T14:13:03.802Z,7.20
2019-04-28T14:16:08.154Z,7.20
2019-04-28T14:19:12.573Z,7.30
2019-04-28T14:22:16.801Z,7.50
2019-04-28T14:25:21.100Z,7.87
2019-04-28T14:28:25.426Z,7.03
2019-04-28T14:31:29.763Z,7.50
2019-04-28T14:34:34.050Z,6.63
2019-04-28T14:37:44.804Z,6.97
2019-04-28T14:40:49.199Z,6.33
2019-04-28T14:43:53.625Z,8.03
2019-04-28T14:46:57.895Z,7.07
2019-04-28T14:50:02.913Z,6.40
2019-04-28T14:53:08.803Z,5.60
2019-04-28T14:56:13.423Z,6.00
2019-04-28T14:59:17.936Z,5.87
2019-04-28T15:02:29.228Z,6.10
2019-04-28T15:05:55.256Z,6.17
2019-04-28T15:09:09.292Z,7.13
2019-04-28T15:12:14.281Z,6.30
2019-04-28T15:15:20.197Z,8.00
2019-04-28T15:18:24.785Z,8.17
2019-04-28T15:21:29.294Z,8.10
2019-04-28T15:24:33.676Z,8.50
2019-04-28T15:27:38.217Z,7.47
2019-04-28T15:30:42.897Z,7.77
2019-04-28T15:33:48.328Z,7.57
2019-04-28T15:36:52.793Z,7.07
2019-04-28T15:39:57.171Z,6.73
2019-04-28T15:43:01.916Z,7.00
2019-04-28T15:46:06.293Z,7.87
2019-04-28T15:49:10.830Z,8.77
2019-04-28T15:52:19.797Z,8.23
2019-04-28T15:55:31.999Z,8.13
2019-04-28T15:58:37.705Z,7.00
2019-04-28T16:01:47.456Z,7.37
2019-04-28T16:04:51.908Z,7.30
2019-04-28T16:07:57.339Z,7.10
2019-04-28T16:11:02.479Z,7.07
2019-04-28T16:14:06.912Z,7.13
2019-04-28T16:17:11.295Z,7.40
2019-04-28T16:20:15.992Z,6.83
2019-04-28T16:23:21.475Z,7.63
2019-04-28T16:26:26.052Z,8.20
2019-04-28T16:29:30.571Z,8.30
2019-04-28T16:32:36.131Z,9.80
2019-04-28T16:35:40.554Z,8.60
2019-04-28T16:38:44.933Z,8.73
2019-04-28T16:41:53.347Z,8.13
2019-04-28T16:44:58.324Z,8.53
2019-04-28T16:48:02.723Z,8.30
2019-04-28T16:51:07.082Z,8.90
2019-04-28T16:54:11.508Z,8.37
2019-04-28T16:57:28.321Z,8.40
2019-04-28T17:00:57.634Z,8.00
2019-04-28T17:04:01.983Z,16.80
2019-04-28T17:07:06.518Z,11.07
2019-04-28T17:10:10.857Z,12.10
2019-04-28T17:13:18.175Z,10.77
2019-04-28T17:16:22.587Z,10.03
2019-04-28T17:19:26.884Z,9.47
2019-04-28T17:22:31.150Z,8.43
2019-04-28T17:25:35.867Z,8.37
2019-04-28T17:28:40.154Z,7.87
2019-04-28T17:31:44.557Z,8.40
2019-04-28T17:34:48.904Z,8.67
2019-04-28T17:38:05.821Z,9.10
2019-04-28T17:40:59.192Z,10.23
2019-04-28T17:44:03.807Z,9.70
2019-04-28T17:47:08.274Z,8.93
2019-04-28T17:50:14.765Z,10.27
2019-04-28T17:53:19.079Z,9.80
2019-04-28T17:56:23.484Z,12.67
2019-04-28T17:59:27.848Z,18.00
2019-04-28T18:02:50.349Z,16.30
2019-04-28T18:05:59.999Z,13.63
2019-04-28T18:09:06.225Z,14.33
2019-04-28T18:12:10.568Z,14.70
2019-04-28T18:15:45.859Z,16.10
2019-04-28T18:18:55.483Z,19.00
2019-04-28T18:21:59.786Z,15.63
2019-04-28T18:25:04.252Z,20.17
2019-04-28T18:28:08.562Z,37.80
2019-04-28T18:31:43.974Z,27.43
2019-04-28T18:35:03.612Z,37.20
2019-04-28T18:38:34.759Z,30.10
2019-04-28T18:42:00.288Z,45.07
2019-04-28T18:45:04.876Z,25.40
2019-04-28T18:48:11.070Z,20.70
2019-04-28T18:51:15.360Z,21.60
2019-04-28T18:54:19.744Z,25.63
2019-04-28T18:57:24.091Z,22.43
2019-04-28T19:00:31.620Z,18.23
2019-04-28T19:03:36.373Z,14.17
2019-04-28T19:06:40.792Z,13.07
2019-04-28T19:09:57.339Z,13.60
2019-04-28T19:13:06.335Z,23.53
2019-04-28T19:16:35.842Z,24.37
2019-04-28T19:19:40.673Z,23.37
2019-04-28T19:22:46.155Z,22.40
2019-04-28T19:25:50.561Z,27.33
2019-04-28T19:28:55.931Z,17.73
2019-04-28T19:32:00.277Z,13.80
2019-04-28T19:35:04.657Z,11.97
2019-04-28T19:38:08.930Z,11.43
2019-04-28T19:41:13.492Z,70.77
2019-04-28T19:44:17.831Z,22.33
2019-04-28T19:47:22.193Z,71.70
2019-04-28T19:50:26.663Z,43.20
2019-04-28T19:53:31.911Z,20.93
2019-04-28T19:56:54.443Z,18.37
2019-04-28T20:00:15.253Z,15.00
2019-04-28T20:03:19.655Z,14.97
2019-04-28T20:06:23.991Z,13.57
2019-04-28T20:09:28.876Z,12.10
2019-04-28T20:12:35.076Z,13.10
2019-04-28T20:15:39.375Z,12.47
2019-04-28T20:18:43.726Z,12.53
2019-04-28T20:21:48.097Z,12.73
2019-04-28T20:24:53.528Z,12.37
2019-04-28T20:27:57.823Z,13.70
2019-04-28T20:31:02.176Z,13.90
2019-04-28T20:34:06.575Z,12.13
2019-04-28T20:40:54.827Z,11.63
2019-04-28T20:44:00.162Z,11.23
2019-04-28T20:47:04.603Z,12.03
2019-04-28T20:50:10.420Z,11.07
2019-04-28T20:53:19.151Z,11.27
2019-04-28T20:56:22.189Z,11.20
2019-04-28T20:59:26.508Z,11.27
2019-04-28T21:02:30.699Z,11.30
2019-04-28T21:05:36.214Z,15.93
2019-04-28T21:08:40.418Z,15.90
2019-04-28T21:11:44.843Z,14.60
2019-04-28T21:14:49.179Z,15.17
2019-04-28T21:17:53.458Z,14.40
2019-04-28T21:20:57.815Z,13.87
2019-04-28T21:24:02.476Z,12.07
2019-04-28T21:27:06.756Z,11.80
2019-04-28T21:30:11.443Z,11.30
2019-04-28T21:33:15.796Z,11.60
2019-04-28T21:36:20.206Z,10.90
2019-04-28T21:39:24.778Z,10.67
2019-04-28T21:42:35.667Z,10.70
2019-04-28T21:45:53.851Z,10.73
2019-04-28T21:49:01.348Z,10.50
2019-04-28T21:52:05.607Z,10.50
2019-04-28T21:55:10.052Z,9.13
2019-04-28T21:58:14.342Z,10.53
2019-04-28T22:01:22.072Z,10.00
2019-04-28T22:04:26.535Z,9.17
2019-04-28T22:07:30.847Z,9.60
2019-04-28T22:10:35.318Z,9.03
2019-04-28T22:13:39.622Z,9.00
2019-04-28T22:16:43.883Z,8.87
2019-04-28T22:19:49.371Z,9.10
2019-04-28T22:22:57.329Z,8.80
2019-04-28T22:26:01.620Z,8.87
2019-04-28T22:29:05.944Z,9.27
2019-04-28T22:32:10.295Z,9.23
2019-04-28T22:35:14.745Z,7.63
2019-04-28T22:38:18.968Z,8.23
2019-04-28T22:41:23.374Z,8.20
2019-04-28T22:44:27.750Z,7.40
2019-04-28T22:47:32.055Z,7.60
2019-04-28T22:50:39.893Z,7.37
2019-04-28T22:53:44.231Z,7.63
2019-04-28T22:56:55.266Z,7.40
2019-04-28T22:59:59.909Z,7.60
2019-04-28T23:03:04.228Z,7.37
2019-04-28T23:06:10.505Z,7.63
2019-04-28T23:09:17.061Z,6.40
2019-04-28T23:12:21.824Z,6.67
2019-04-28T23:15:26.572Z,6.10
2019-04-28T23:18:30.993Z,6.20
2019-04-28T23:21:48.591Z,5.80
2019-04-28T23:24:52.905Z,6.07
2019-04-28T23:27:57.178Z,5.70
2019-04-28T23:31:01.518Z,5.37
2019-04-28T23:34:05.910Z,5.23
2019-04-28T23:37:10.163Z,4.53
2019-04-28T23:40:15.155Z,5.27
2019-04-28T23:43:20.787Z,4.73
2019-04-28T23:46:44.111Z,4.30
2019-04-28T23:49:48.432Z,4.80
2019-04-28T23:53:00.468Z,4.07
2019-04-28T23:56:04.802Z,4.60
2019-04-28T23:59:09.371Z,4.53
